Time;durP1;ratioP1;P1;durP2;ratioP2;P2;SDS_P1;SDS_P2;PMS_P1;PMS_P2;Temp;Humidity;BMP_temperature;BMP_pressure;BME280_temperature;BME280_humidity;BME280_pressure;Samples;Min_cycle;Max_cycle;Signal;HPM_P1;HPM_P2
2021/09/10 00:00:43;;;;;;;0.70;0.52;;;18.30;52.20;;;;;;5020035;28;20224;-63
2021/09/10 00:03:13;;;;;;;0.40;0.38;;;18.40;52.30;;;;;;5010970;28;20263;-58
2021/09/10 00:05:43;;;;;;;0.60;0.52;;;18.30;52.20;;;;;;5011782;28;20232;-62
2021/09/10 00:08:14;;;;;;;0.52;0.30;;;18.30;52.20;;;;;;5014086;28;20641;-63
2021/09/10 00:10:46;;;;;;;0.75;0.60;;;18.30;52.30;;;;;;5014038;28;20260;-58
2021/09/10 00:13:17;;;;;;;0.60;0.60;;;18.30;52.30;;;;;;5014316;28;20193;-60
2021/09/10 00:15:47;;;;;;;0.95;0.60;;;18.40;52.30;;;;;;5014497;28;20645;-56
2021/09/10 00:18:18;;;;;;;0.57;0.40;;;18.40;52.30;;;;;;5013807;28;20653;-60
2021/09/10 00:20:48;;;;;;;0.50;0.40;;;18.40;52.30;;;;;;5014869;28;20228;-63
2021/09/10 00:23:19;;;;;;;0.68;0.30;;;18.40;52.30;;;;;;5013372;28;20244;-62
2021/09/10 00:25:51;;;;;;;0.50;0.40;;;18.40;52.30;;;;;;5014111;28;20661;-57
2021/09/10 00:28:23;;;;;;;1.30;0.63;;;18.40;52.30;;;;;;5013812;28;20193;-57
2021/09/10 00:30:53;;;;;;;0.38;0.32;;;18.40;52.40;;;;;;5014046;28;20233;-62
2021/09/10 00:33:24;;;;;;;0.40;0.30;;;18.40;52.30;;;;;;5013927;28;20460;-61
2021/09/10 00:35:54;;;;;;;0.77;0.47;;;18.40;52.30;;;;;;5013676;28;20549;-52
2021/09/10 00:38:25;;;;;;;0.75;0.40;;;18.40;52.60;;;;;;5013088;28;20205;-62
2021/09/10 00:40:58;;;;;;;0.45;0.35;;;18.40;53.00;;;;;;5013551;28;20264;-64
2021/09/10 00:43:28;;;;;;;1.02;0.40;;;18.40;53.00;;;;;;5012834;28;20208;-50
2021/09/10 00:46:00;;;;;;;0.65;0.40;;;18.50;53.00;;;;;;5012352;28;20804;-56
2021/09/10 00:48:30;;;;;;;0.30;0.30;;;18.50;53.00;;;;;;5013128;28;20255;-52
2021/09/10 00:51:01;;;;;;;0.50;0.40;;;18.50;53.00;;;;;;5012996;28;20260;-60
2021/09/10 00:53:31;;;;;;;0.73;0.30;;;18.50;53.00;;;;;;5013706;28;20258;-66
2021/09/10 00:56:04;;;;;;;2.40;0.40;;;18.50;53.00;;;;;;5033390;28;20289;-56
2021/09/10 00:58:34;;;;;;;0.68;0.60;;;18.50;53.00;;;;;;5032706;28;20660;-59
2021/09/10 01:01:05;;;;;;;0.32;0.32;;;18.50;53.00;;;;;;5020500;28;20229;-59
2021/09/10 01:03:35;;;;;;;0.40;0.40;;;18.50;53.00;;;;;;5013205;28;20247;-64
2021/09/10 01:06:06;;;;;;;0.75;0.60;;;18.50;52.90;;;;;;5013400;28;20618;-61
2021/09/10 01:08:36;;;;;;;0.20;0.20;;;18.50;52.90;;;;;;5012837;28;20630;-57
2021/09/10 01:11:09;;;;;;;1.10;0.40;;;18.50;52.90;;;;;;5012557;28;20255;-63
2021/09/10 01:13:39;;;;;;;0.63;0.47;;;18.50;52.80;;;;;;5012377;28;20200;-60
2021/09/10 01:16:10;;;;;;;0.75;0.40;;;18.50;52.80;;;;;;5013434;28;20298;-62
2021/09/10 01:18:40;;;;;;;0.30;0.30;;;18.50;52.80;;;;;;5026097;28;20238;-57
2021/09/10 01:21:11;;;;;;;0.32;0.32;;;18.50;52.80;;;;;;5033161;28;20217;-60
2021/09/10 01:23:41;;;;;;;1.73;0.40;;;18.50;52.80;;;;;;5028106;28;20321;-64
2021/09/10 01:26:14;;;;;;;0.52;0.50;;;18.60;53.40;;;;;;5032475;28;20246;-63
2021/09/10 01:28:44;;;;;;;1.60;0.50;;;18.50;52.80;;;;;;5032689;28;20196;-63
2021/09/10 01:31:14;;;;;;;0.50;0.40;;;18.50;52.80;;;;;;5018052;28;20264;-64
2021/09/10 01:33:45;;;;;;;0.60;0.38;;;18.50;52.80;;;;;;5012717;28;20645;-64
2021/09/10 01:36:16;;;;;;;0.65;0.30;;;18.50;52.80;;;;;;5011656;28;20192;-63
2021/09/10 01:38:46;;;;;;;0.63;0.43;;;18.50;52.90;;;;;;5012521;28;20207;-63
2021/09/10 01:41:19;;;;;;;0.55;0.35;;;18.50;52.90;;;;;;5015557;28;20278;-63
2021/09/10 01:43:49;;;;;;;0.50;0.32;;;18.50;52.90;;;;;;5050420;22;20839;-49
2021/09/10 01:46:20;;;;;;;0.88;0.50;;;18.50;52.90;;;;;;5050559;28;20276;-49
2021/09/10 01:48:50;;;;;;;0.30;0.30;;;18.50;53.00;;;;;;5052207;28;20199;-53
2021/09/10 01:51:20;;;;;;;0.40;0.30;;;18.50;53.00;;;;;;5051274;28;20289;-54
2021/09/10 01:53:51;;;;;;;0.98;0.30;;;18.50;53.10;;;;;;5050516;28;20655;-49
2021/09/10 01:56:23;;;;;;;0.30;0.30;;;18.50;53.10;;;;;;5041001;28;20298;-51
2021/09/10 01:58:54;;;;;;;0.90;0.47;;;18.50;53.10;;;;;;5030619;28;20262;-49
2021/09/10 02:01:25;;;;;;;0.57;0.40;;;18.50;53.10;;;;;;5030864;28;20286;-48
2021/09/10 02:03:56;;;;;;;0.75;0.40;;;18.50;53.20;;;;;;5030903;28;20206;-48
2021/09/10 02:06:26;;;;;;;1.52;0.40;;;18.50;53.20;;;;;;5031607;28;20228;-52
2021/09/10 02:08:56;;;;;;;0.57;0.35;;;18.60;53.30;;;;;;5031539;28;20290;-51
2021/09/10 02:11:29;;;;;;;1.05;0.40;;;18.60;53.30;;;;;;5031777;28;20260;-50
2021/09/10 02:13:59;;;;;;;0.45;0.30;;;18.50;53.30;;;;;;5030979;28;20427;-43
2021/09/10 02:16:30;;;;;;;1.98;0.50;;;18.60;53.40;;;;;;5031336;28;20721;-49
2021/09/10 02:19:00;;;;;;;0.52;0.52;;;18.60;53.40;;;;;;5031576;28;20246;-49
2021/09/10 02:21:31;;;;;;;0.50;0.40;;;18.60;53.40;;;;;;5031504;28;20238;-55
2021/09/10 02:24:01;;;;;;;0.52;0.35;;;18.60;53.90;;;;;;5031225;28;20235;-52
2021/09/10 02:26:34;;;;;;;0.20;0.20;;;18.60;54.30;;;;;;5031171;28;20722;-53
2021/09/10 02:29:04;;;;;;;0.30;0.30;;;18.70;54.60;;;;;;5031295;28;20246;-52
2021/09/10 02:31:34;;;;;;;0.20;0.20;;;18.70;54.70;;;;;;5030532;28;20267;-49
2021/09/10 02:34:05;;;;;;;0.50;0.50;;;18.80;54.80;;;;;;5031752;28;20200;-48
2021/09/10 02:36:36;;;;;;;0.55;0.30;;;18.80;54.70;;;;;;5029750;28;20297;-55
2021/09/10 02:39:07;;;;;;;0.22;0.22;;;18.80;54.60;;;;;;5031163;28;20571;-54
2021/09/10 02:41:39;;;;;;;0.30;0.30;;;18.90;54.50;;;;;;5030431;28;20227;-55
2021/09/10 02:44:09;;;;;;;0.73;0.30;;;18.90;54.50;;;;;;5051754;22;20301;-64
2021/09/10 02:46:40;;;;;;;0.30;0.30;;;18.90;54.40;;;;;;5050421;28;20200;-61
2021/09/10 02:49:10;;;;;;;0.30;0.30;;;19.00;54.40;;;;;;5050607;28;20195;-62
2021/09/10 02:51:41;;;;;;;0.38;0.32;;;19.00;54.30;;;;;;5050825;28;20227;-64
2021/09/10 02:54:11;;;;;;;0.20;0.20;;;19.00;54.20;;;;;;5050388;28;20218;-54
2021/09/10 02:56:44;;;;;;;0.30;0.30;;;19.10;54.20;;;;;;5049270;28;20203;-63
2021/09/10 02:59:14;;;;;;;0.43;0.30;;;19.10;54.70;;;;;;5050379;28;20245;-63
2021/09/10 03:01:47;;;;;;;1.10;0.55;;;19.10;54.10;;;;;;5049462;28;20243;-63
2021/09/10 03:04:17;;;;;;;0.30;0.30;;;19.20;54.00;;;;;;5049792;28;20199;-63
2021/09/10 03:06:48;;;;;;;1.10;0.40;;;19.20;54.00;;;;;;5049623;28;20204;-63
2021/09/10 03:09:18;;;;;;;0.40;0.40;;;19.20;53.90;;;;;;5049549;28;20195;-63
2021/09/10 03:11:50;;;;;;;0.45;0.25;;;19.20;53.80;;;;;;5050338;28;20226;-59
2021/09/10 03:14:21;;;;;;;0.52;0.35;;;19.20;53.80;;;;;;5050854;28;20253;-58
2021/09/10 03:16:51;;;;;;;0.70;0.40;;;19.30;53.80;;;;;;5050181;28;20265;-64
2021/09/10 03:19:22;;;;;;;0.40;0.40;;;19.30;53.70;;;;;;5050592;28;20195;-60
2021/09/10 03:21:53;;;;;;;0.30;0.30;;;19.30;53.70;;;;;;5050948;28;20289;-60
2021/09/10 03:24:23;;;;;;;0.20;0.20;;;19.30;53.60;;;;;;5050677;28;20242;-64
2021/09/10 03:26:55;;;;;;;0.38;0.30;;;19.40;53.70;;;;;;5051026;28;20199;-63
2021/09/10 03:29:26;;;;;;;0.55;0.40;;;19.40;53.60;;;;;;5051245;28;20195;-62
2021/09/10 03:31:56;;;;;;;0.25;0.25;;;19.40;53.50;;;;;;5050650;28;20586;-65
2021/09/10 03:34:29;;;;;;;0.30;0.30;;;19.40;53.50;;;;;;5049900;28;20599;-63
2021/09/10 03:37:00;;;;;;;0.30;0.30;;;19.50;53.50;;;;;;5048860;28;20652;-61
2021/09/10 03:39:31;;;;;;;0.85;0.40;;;19.50;53.30;;;;;;5049972;28;20249;-63
2021/09/10 03:42:03;;;;;;;1.15;0.30;;;19.50;53.30;;;;;;5053102;28;20258;-64
2021/09/10 03:44:34;;;;;;;0.30;0.30;;;19.50;53.30;;;;;;5053752;28;20199;-62
2021/09/10 03:47:05;;;;;;;0.30;0.30;;;19.50;53.20;;;;;;5054325;28;20223;-64
2021/09/10 03:49:36;;;;;;;0.40;0.40;;;19.50;53.20;;;;;;5054071;28;20644;-61
2021/09/10 03:52:07;;;;;;;0.20;0.20;;;19.60;53.20;;;;;;5054009;28;20234;-60
2021/09/10 03:54:37;;;;;;;0.20;0.20;;;19.60;53.20;;;;;;5053770;28;20187;-64
2021/09/10 03:57:10;;;;;;;0.38;0.30;;;19.60;53.20;;;;;;5054366;28;20249;-65
2021/09/10 03:59:40;;;;;;;1.20;0.30;;;19.60;53.20;;;;;;5053902;28;20223;-65
2021/09/10 04:02:11;;;;;;;0.20;0.20;;;19.60;53.10;;;;;;5053616;28;20261;-64
2021/09/10 04:04:41;;;;;;;0.57;0.32;;;19.60;53.00;;;;;;5053421;28;20253;-64
2021/09/10 04:07:12;;;;;;;0.30;0.30;;;19.60;53.00;;;;;;5052959;28;20199;-65
2021/09/10 04:09:42;;;;;;;0.20;0.20;;;19.60;53.00;;;;;;5053121;28;20269;-65
2021/09/10 04:12:15;;;;;;;0.30;0.30;;;19.60;53.00;;;;;;5053248;28;20296;-62
2021/09/10 04:14:45;;;;;;;0.20;0.20;;;19.60;52.90;;;;;;5052671;28;20277;-64
2021/09/10 04:17:15;;;;;;;0.20;0.20;;;19.60;52.90;;;;;;5051170;28;20281;-50
2021/09/10 04:19:46;;;;;;;0.50;0.50;;;19.60;52.90;;;;;;5053741;28;20253;-64
2021/09/10 04:22:16;;;;;;;0.20;0.20;;;19.60;52.90;;;;;;5054071;28;20195;-63
2021/09/10 04:24:47;;;;;;;0.30;0.30;;;19.60;52.80;;;;;;5053086;28;20191;-56
2021/09/10 04:27:19;;;;;;;0.30;0.30;;;19.60;53.50;;;;;;5053597;28;20191;-64
2021/09/10 04:29:50;;;;;;;0.25;0.25;;;19.60;52.90;;;;;;5052077;28;20211;-55
2021/09/10 04:32:20;;;;;;;0.47;0.40;;;19.50;52.80;;;;;;5053591;28;20223;-65
2021/09/10 04:34:51;;;;;;;0.45;0.30;;;19.60;53.40;;;;;;5053228;28;20249;-62
2021/09/10 04:37:21;;;;;;;0.30;0.30;;;19.60;52.80;;;;;;5052697;28;20253;-66
2021/09/10 04:39:52;;;;;;;0.30;0.30;;;19.60;52.80;;;;;;5052654;28;20286;-58
2021/09/10 04:42:24;;;;;;;0.30;0.30;;;19.60;52.80;;;;;;5053735;28;20604;-59
2021/09/10 04:44:54;;;;;;;0.30;0.30;;;19.50;52.70;;;;;;5052945;28;20675;-64
2021/09/10 04:47:26;;;;;;;0.30;0.30;;;19.50;52.70;;;;;;5052204;28;20245;-64
2021/09/10 04:49:56;;;;;;;0.30;0.30;;;19.50;52.70;;;;;;5052819;28;20275;-61
2021/09/10 04:52:27;;;;;;;0.43;0.25;;;19.50;52.70;;;;;;5052273;28;20285;-59
2021/09/10 04:54:57;;;;;;;0.30;0.30;;;19.50;52.70;;;;;;5052515;28;20246;-67
2021/09/10 04:57:30;;;;;;;0.30;0.30;;;19.50;52.80;;;;;;5052321;28;20199;-64
2021/09/10 05:00:00;;;;;;;0.50;0.30;;;19.60;52.90;;;;;;5053512;28;20305;-63
2021/09/10 05:02:31;;;;;;;0.40;0.40;;;19.60;52.90;;;;;;5053090;28;20241;-65
2021/09/10 05:05:01;;;;;;;0.28;0.28;;;19.50;52.80;;;;;;5053481;28;20195;-64
2021/09/10 05:07:32;;;;;;;0.60;0.30;;;19.50;52.70;;;;;;5052037;28;20253;-64
2021/09/10 05:10:02;;;;;;;0.60;0.40;;;19.60;52.70;;;;;;5053018;28;20215;-61
2021/09/10 05:12:34;;;;;;;0.25;0.25;;;19.60;52.80;;;;;;5051502;28;20223;-62
2021/09/10 05:15:05;;;;;;;0.35;0.30;;;19.60;52.70;;;;;;5051937;28;20560;-64
2021/09/10 05:17:35;;;;;;;0.32;0.30;;;19.60;52.70;;;;;;5051926;28;20702;-63
2021/09/10 05:20:07;;;;;;;0.60;0.43;;;19.60;52.70;;;;;;5051698;28;20273;-61
2021/09/10 05:22:39;;;;;;;0.63;0.40;;;19.60;52.70;;;;;;5052423;28;20203;-65
2021/09/10 05:25:10;;;;;;;0.65;0.40;;;19.50;52.60;;;;;;5051938;28;20199;-63
2021/09/10 05:27:43;;;;;;;0.35;0.30;;;19.60;52.60;;;;;;5053116;28;20199;-60
2021/09/10 05:30:14;;;;;;;0.30;0.30;;;19.60;52.60;;;;;;5052912;28;20223;-60
2021/09/10 05:32:44;;;;;;;0.98;0.40;;;19.60;52.50;;;;;;5052845;28;20695;-62
2021/09/10 05:35:15;;;;;;;0.57;0.50;;;19.60;52.50;;;;;;5052796;28;20231;-65
2021/09/10 05:37:46;;;;;;;0.68;0.30;;;19.60;52.50;;;;;;5050158;28;20357;-65
2021/09/10 05:40:17;;;;;;;1.25;0.43;;;19.60;52.50;;;;;;5052221;28;20223;-61
2021/09/10 06:03:02;;;;;;;0.30;0.30;;;19.50;52.10;;;;;;5051722;28;20518;-65
2021/09/10 06:05:32;;;;;;;0.45;0.45;;;19.50;52.10;;;;;;5050999;28;20195;-65
2021/09/10 06:08:03;;;;;;;0.40;0.40;;;19.50;52.10;;;;;;5052143;28;20378;-64
2021/09/10 06:10:34;;;;;;;0.50;0.50;;;19.50;52.10;;;;;;5051488;28;20254;-64
2021/09/10 06:13:05;;;;;;;0.60;0.40;;;19.50;52.10;;;;;;5051413;28;20254;-62
2021/09/10 06:15:35;;;;;;;0.60;0.50;;;19.50;52.00;;;;;;5051294;28;20200;-62
2021/09/10 06:18:08;;;;;;;0.50;0.50;;;19.50;52.00;;;;;;5051638;28;20199;-65
2021/09/10 06:20:38;;;;;;;1.77;0.45;;;19.50;52.10;;;;;;5051357;28;20215;-64
2021/09/10 06:23:09;;;;;;;1.10;0.70;;;19.50;52.00;;;;;;5050933;28;20199;-48
2021/09/10 06:25:39;;;;;;;0.68;0.40;;;19.50;52.00;;;;;;5051292;28;20563;-65
2021/09/10 06:28:11;;;;;;;0.45;0.40;;;19.40;51.90;;;;;;5050439;28;20199;-61
2021/09/10 06:30:42;;;;;;;0.60;0.45;;;19.50;51.90;;;;;;5050298;28;20315;-64
2021/09/10 06:33:14;;;;;;;0.82;0.50;;;19.40;51.70;;;;;;5052128;28;20234;-64
2021/09/10 06:35:45;;;;;;;0.98;0.60;;;19.50;51.80;;;;;;5051191;28;20232;-64
2021/09/10 06:38:15;;;;;;;0.50;0.50;;;19.40;51.80;;;;;;5051073;28;20536;-64
2021/09/10 06:40:46;;;;;;;0.60;0.60;;;19.40;51.80;;;;;;5052066;28;20227;-65
2021/09/10 06:43:16;;;;;;;0.70;0.52;;;19.40;51.70;;;;;;5051664;28;20215;-65
2021/09/10 06:45:47;;;;;;;1.02;0.68;;;19.40;51.70;;;;;;5051041;28;20203;-65
2021/09/10 06:48:19;;;;;;;0.93;0.75;;;19.40;51.70;;;;;;5051010;28;20214;-63
2021/09/10 06:50:50;;;;;;;0.80;0.60;;;19.30;51.70;;;;;;5051056;28;20223;-63
2021/09/10 06:53:21;;;;;;;0.93;0.60;;;19.30;51.70;;;;;;5050861;28;20246;-59
2021/09/10 06:55:51;;;;;;;0.90;0.68;;;19.30;51.70;;;;;;5051400;28;20199;-65
2021/09/10 06:58:22;;;;;;;0.88;0.80;;;19.30;51.70;;;;;;5051617;28;20218;-66
2021/09/10 07:00:53;;;;;;;0.88;0.77;;;19.30;51.70;;;;;;5051406;28;20219;-58
2021/09/10 07:03:25;;;;;;;1.02;0.77;;;19.20;51.60;;;;;;5051531;28;20199;-65
2021/09/10 07:05:56;;;;;;;1.48;1.08;;;19.20;51.60;;;;;;5051545;28;20659;-64
2021/09/10 07:08:26;;;;;;;3.05;1.33;;;19.20;51.60;;;;;;5050836;28;20199;-59
2021/09/10 07:55:31;;;;;;;3.92;1.92;;;18.80;51.90;;;;;;5030483;28;20258;-56
2021/09/10 07:58:04;;;;;;;4.63;2.20;;;18.80;51.90;;;;;;5030254;28;20282;-57
2021/09/10 08:00:34;;;;;;;5.55;2.15;;;18.80;52.00;;;;;;5038792;28;20308;-57
2021/09/10 08:03:04;;;;;;;4.45;2.38;;;18.70;52.00;;;;;;5050087;28;20285;-57
2021/09/10 08:05:35;;;;;;;8.25;3.17;;;18.70;52.00;;;;;;5049736;28;20234;-56
2021/09/10 08:08:06;;;;;;;4.70;2.53;;;18.70;52.00;;;;;;5049742;28;20603;-57
2021/09/10 08:10:36;;;;;;;5.45;3.13;;;18.60;52.00;;;;;;5050085;28;20208;-56
2021/09/10 08:13:09;;;;;;;6.03;3.15;;;18.60;52.20;;;;;;5049852;28;20228;-56
2021/09/10 08:15:39;;;;;;;7.07;3.30;;;18.60;52.00;;;;;;5050492;28;20612;-56
2021/09/10 08:18:10;;;;;;;5.53;2.92;;;18.60;52.00;;;;;;5050488;28;20241;-55
2021/09/10 08:20:40;;;;;;;5.18;3.05;;;18.60;52.00;;;;;;5050298;28;20695;-54
2021/09/10 08:23:11;;;;;;;4.57;3.17;;;18.60;52.00;;;;;;5050104;28;20257;-56
2021/09/10 08:25:41;;;;;;;5.70;2.65;;;18.50;52.00;;;;;;5050557;28;20196;-53
2021/09/10 08:28:13;;;;;;;5.25;2.80;;;18.50;52.00;;;;;;5054507;28;20235;-57
2021/09/10 08:30:45;;;;;;;5.10;3.08;;;18.50;52.00;;;;;;5054025;28;20251;-56
2021/09/10 08:33:15;;;;;;;5.32;2.90;;;18.50;52.00;;;;;;5053372;28;20227;-55
2021/09/10 08:35:45;;;;;;;4.07;2.45;;;18.50;52.00;;;;;;5053960;28;20199;-53
2021/09/10 08:38:16;;;;;;;5.20;2.55;;;18.50;52.10;;;;;;5053557;28;20261;-56
2021/09/10 08:40:47;;;;;;;4.85;2.42;;;18.50;52.50;;;;;;5053657;28;20647;-56
2021/09/10 08:45:55;;;;;;;4.45;2.63;;;18.40;52.70;;;;;;5030213;28;20212;-64
2021/09/10 08:48:27;;;;;;;4.68;2.45;;;18.40;52.60;;;;;;5033561;28;20196;-50
2021/09/10 08:50:58;;;;;;;5.20;2.60;;;18.40;52.60;;;;;;5033613;28;20255;-65
2021/09/10 08:53:28;;;;;;;5.85;3.10;;;18.40;52.50;;;;;;5033772;28;20320;-61
2021/09/10 08:55:58;;;;;;;4.20;2.60;;;18.30;52.50;;;;;;5016709;28;20205;-61
2021/09/10 08:58:29;;;;;;;4.68;2.88;;;18.30;52.50;;;;;;5021418;28;20825;-64
2021/09/10 09:01:03;;;;;;;5.43;2.63;;;18.30;52.50;;;;;;5033254;28;20223;-59
2021/09/10 09:03:34;;;;;;;3.85;2.65;;;18.30;52.50;;;;;;5032826;28;20205;-65
2021/09/10 09:06:05;;;;;;;4.72;2.80;;;18.30;52.50;;;;;;5032223;28;20227;-65
2021/09/10 09:08:36;;;;;;;5.45;2.75;;;18.20;52.40;;;;;;5032179;28;20200;-60
2021/09/10 09:11:07;;;;;;;4.13;2.78;;;18.20;52.40;;;;;;5032253;28;20220;-65
2021/09/10 09:13:38;;;;;;;3.95;2.42;;;18.20;52.40;;;;;;5031461;28;20220;-64
2021/09/10 09:16:24;;;;;;;4.05;2.30;;;18.20;52.40;;;;;;5032607;28;20231;-63
2021/09/10 09:18:55;;;;;;;4.10;2.30;;;18.20;52.40;;;;;;5027254;28;20200;-65
2021/09/10 09:21:27;;;;;;;4.43;2.90;;;18.10;52.30;;;;;;5031535;28;20304;-64
2021/09/10 09:23:58;;;;;;;3.38;2.47;;;18.10;52.30;;;;;;5032190;28;20199;-67
2021/09/10 09:26:29;;;;;;;4.55;2.50;;;18.10;52.30;;;;;;5032171;28;20722;-65
2021/09/10 09:29:07;;;;;;;5.30;2.72;;;18.10;52.40;;;;;;5032680;28;20197;-64
2021/09/10 09:31:40;;;;;;;3.10;2.33;;;18.10;52.40;;;;;;5031494;28;20875;-62
2021/09/10 09:44:17;;;;;;;4.63;2.55;;;18.00;52.30;;;;;;5032233;28;20195;-60
2021/09/10 09:46:56;;;;;;;3.65;2.65;;;17.90;52.30;;;;;;5032120;28;20200;-66
2021/09/10 09:49:27;;;;;;;3.20;2.25;;;17.90;52.40;;;;;;5023678;28;20189;-61
2021/09/10 09:58:42;;;;;;;5.40;2.78;;;17.80;52.30;;;;;;5008737;28;20188;-65
2021/09/10 10:18:05;;;;;;;3.28;2.33;;;17.70;52.40;;;;;;5029975;28;20237;-66
2021/09/10 10:20:52;;;;;;;4.28;2.40;;;17.60;52.40;;;;;;5027882;28;20293;-59
2021/09/10 10:23:55;;;;;;;4.13;2.50;;;17.60;52.50;;;;;;5029578;28;20559;-65
2021/09/10 10:26:42;;;;;;;4.65;2.35;;;17.60;52.50;;;;;;5029775;28;20206;-66
2021/09/10 10:29:14;;;;;;;3.20;2.30;;;17.60;52.50;;;;;;5029171;28;20203;-66
2021/09/10 10:32:17;;;;;;;5.10;2.47;;;17.60;52.50;;;;;;5029109;28;20281;-57
2021/09/10 10:35:20;;;;;;;4.18;2.38;;;17.50;52.50;;;;;;4967963;28;20226;-63
2021/09/10 10:37:51;;;;;;;4.00;2.67;;;17.50;52.50;;;;;;4967978;28;20269;-54
2021/09/10 10:40:33;;;;;;;4.68;2.80;;;17.50;52.40;;;;;;5012131;28;20232;-56
2021/09/10 10:43:04;;;;;;;4.15;3.00;;;17.50;52.50;;;;;;5029597;28;20227;-63
2021/09/10 10:46:04;;;;;;;5.28;2.70;;;17.50;52.50;;;;;;5030129;28;20219;-62
2021/09/10 10:48:51;;;;;;;5.03;2.80;;;17.40;52.50;;;;;;5029144;28;20262;-58
2021/09/10 10:51:45;;;;;;;4.40;2.47;;;17.40;52.40;;;;;;5029074;28;20219;-62
2021/09/10 10:54:16;;;;;;;4.18;2.58;;;17.40;52.50;;;;;;5025921;28;20746;-63
2021/09/10 10:56:50;;;;;;;6.28;2.50;;;17.40;52.40;;;;;;5017823;28;20196;-62
2021/09/10 10:59:39;;;;;;;4.20;2.60;;;17.40;52.50;;;;;;5009839;28;20788;-54
2021/09/10 11:02:37;;;;;;;7.00;2.88;;;17.30;52.50;;;;;;5009358;28;20209;-64
2021/09/10 11:05:20;;;;;;;5.22;2.70;;;17.30;52.50;;;;;;5009155;28;20197;-64
2021/09/10 11:07:52;;;;;;;5.47;2.80;;;17.30;52.40;;;;;;5009205;28;20630;-57
2021/09/10 11:10:23;;;;;;;5.07;2.55;;;17.30;52.50;;;;;;5009125;28;20302;-60
2021/09/10 11:12:57;;;;;;;3.45;2.58;;;17.30;52.50;;;;;;5009101;28;20232;-54
2021/09/10 11:15:28;;;;;;;4.00;2.38;;;17.30;52.50;;;;;;5014412;28;20204;-60
2021/09/10 11:18:00;;;;;;;3.78;2.50;;;17.30;52.50;;;;;;5026652;28;20247;-61
2021/09/10 11:20:36;;;;;;;3.03;2.40;;;17.20;52.50;;;;;;5026384;28;20216;-64
2021/09/10 11:23:09;;;;;;;4.57;2.45;;;17.20;53.10;;;;;;5028402;28;20203;-63
2021/09/10 11:25:46;;;;;;;4.93;2.45;;;17.20;52.50;;;;;;5026592;28;20192;-60
2021/09/10 11:28:17;;;;;;;4.90;2.40;;;17.20;52.50;;;;;;5008708;28;20204;-56
2021/09/10 11:30:48;;;;;;;3.83;2.25;;;17.20;52.50;;;;;;5019283;28;20695;-63
2021/09/10 11:33:18;;;;;;;5.15;2.38;;;17.20;52.50;;;;;;5028756;28;20634;-50
2021/09/10 11:35:49;;;;;;;4.15;2.47;;;17.10;52.50;;;;;;5028290;28;20200;-47
2021/09/10 11:38:23;;;;;;;4.90;2.35;;;17.10;52.40;;;;;;5028369;28;20725;-59
2021/09/10 11:40:54;;;;;;;3.45;2.30;;;17.10;52.50;;;;;;5028177;28;20220;-59
2021/09/10 11:51:46;;;;;;;4.53;2.40;;;17.10;52.40;;;;;;5802306;22;20215;-50
2021/09/10 11:54:27;;;;;;;3.15;2.35;;;17.00;52.50;;;;;;5026864;28;20480;-47
2021/09/10 11:57:00;;;;;;;3.85;2.75;;;17.00;52.40;;;;;;5027957;28;20625;-50
2021/09/10 11:59:32;;;;;;;5.15;2.80;;;17.00;52.40;;;;;;5028161;28;20301;-56
2021/09/10 12:02:03;;;;;;;3.17;2.38;;;17.00;52.40;;;;;;5010312;28;20616;-54
2021/09/10 12:04:34;;;;;;;5.13;2.55;;;17.00;52.40;;;;;;5012599;28;20630;-56
2021/09/10 12:07:06;;;;;;;4.25;2.50;;;17.00;52.40;;;;;;5013016;28;20539;-56
2021/09/10 12:09:40;;;;;;;4.45;2.60;;;17.00;52.40;;;;;;5012487;28;20603;-56
2021/09/10 12:12:16;;;;;;;3.17;2.05;;;17.00;52.40;;;;;;5015022;28;20299;-56
2021/09/10 12:14:49;;;;;;;5.15;2.60;;;16.90;52.30;;;;;;5014971;28;20259;-57
2021/09/10 12:17:21;;;;;;;3.63;2.20;;;16.90;52.30;;;;;;5014813;28;20615;-56
2021/09/10 12:19:56;;;;;;;3.05;2.35;;;16.90;52.30;;;;;;5015055;28;20521;-56
2021/09/10 12:22:37;;;;;;;3.22;2.30;;;16.90;52.90;;;;;;5015128;28;20244;-57
2021/09/10 12:25:37;;;;;;;4.20;2.40;;;16.90;52.40;;;;;;5014616;28;20200;-56
2021/09/10 12:28:26;;;;;;;2.72;2.00;;;16.90;52.40;;;;;;5014895;28;20545;-56
2021/09/10 12:31:04;;;;;;;4.07;2.08;;;16.90;52.30;;;;;;5025900;28;20578;-56
2021/09/10 12:33:35;;;;;;;2.90;1.83;;;16.90;52.40;;;;;;5034041;28;20646;-56
2021/09/10 12:36:06;;;;;;;3.58;2.30;;;16.80;52.30;;;;;;5034513;28;20196;-57
2021/09/10 12:38:37;;;;;;;4.68;2.13;;;16.90;52.40;;;;;;5034890;28;20553;-56
2021/09/10 12:41:10;;;;;;;3.35;2.17;;;16.90;52.40;;;;;;5034405;28;20550;-56
2021/09/10 13:30:27;;;;;;;2.58;1.92;;;16.60;52.30;;;;;;5363197;23;20228;-50
2021/09/10 13:33:05;;;;;;;2.60;1.92;;;16.60;52.30;;;;;;5032302;28;20593;-62
2021/09/10 13:35:37;;;;;;;2.97;1.85;;;16.60;52.30;;;;;;5032410;28;20578;-50
2021/09/10 13:38:08;;;;;;;2.25;1.63;;;16.60;52.30;;;;;;5033461;28;20550;-60
2021/09/10 13:40:39;;;;;;;2.42;1.83;;;16.60;52.30;;;;;;5033391;28;20651;-58
2021/09/10 13:43:10;;;;;;;2.80;1.48;;;16.60;52.30;;;;;;5033062;28;20614;-59
2021/09/10 13:45:47;;;;;;;2.53;1.70;;;16.50;52.30;;;;;;5033658;28;20602;-51
2021/09/10 13:48:18;;;;;;;2.75;1.80;;;16.50;52.30;;;;;;5032911;28;20547;-56
2021/09/10 13:50:48;;;;;;;3.65;2.13;;;16.60;52.40;;;;;;5033039;28;20657;-52
2021/09/10 13:53:19;;;;;;;2.53;1.77;;;16.50;52.30;;;;;;5032999;28;20577;-52
2021/09/10 14:09:21;;;;;;;2.55;1.35;;;16.50;52.30;;;;;;5032834;28;20682;-51
2021/09/10 14:11:51;;;;;;;2.60;1.50;;;16.50;52.30;;;;;;5031751;28;20576;-55
2021/09/10 14:14:23;;;;;;;2.28;1.40;;;16.40;52.30;;;;;;5032010;28;20228;-57
2021/09/10 14:16:55;;;;;;;2.30;1.42;;;16.40;52.30;;;;;;5032682;28;20192;-55
2021/09/10 14:19:26;;;;;;;1.75;1.42;;;16.40;52.30;;;;;;5033181;28;20539;-61
2021/09/10 14:21:58;;;;;;;1.50;1.40;;;16.40;52.30;;;;;;5032288;28;20293;-62
2021/09/10 14:24:30;;;;;;;2.20;1.60;;;16.40;52.40;;;;;;5031520;28;20214;-56
2021/09/10 14:27:01;;;;;;;2.03;1.50;;;16.40;52.40;;;;;;5032460;28;20542;-60
2021/09/10 14:29:32;;;;;;;1.88;1.42;;;16.30;52.30;;;;;;5032315;28;20227;-63
2021/09/10 14:32:03;;;;;;;2.78;1.52;;;16.40;52.40;;;;;;5032215;28;20575;-60
2021/09/10 14:34:34;;;;;;;2.05;1.42;;;16.30;52.30;;;;;;5032210;28;20242;-58
2021/09/10 14:40:31;;;;;;;3.25;1.92;;;16.30;52.30;;;;;;5032271;28;20278;-57
2021/09/10 14:43:02;;;;;;;2.33;1.50;;;16.30;52.20;;;;;;5032173;28;20590;-55
2021/09/10 14:45:33;;;;;;;2.92;1.30;;;16.30;52.30;;;;;;5032364;28;20196;-60
2021/09/10 15:15:02;;;;;;;1.88;1.33;;;16.10;52.20;;;;;;5031842;28;20218;-64
2021/09/10 15:17:34;;;;;;;1.23;1.13;;;16.10;52.20;;;;;;5032128;28;20285;-58
2021/09/10 15:20:05;;;;;;;2.42;1.30;;;16.00;52.30;;;;;;5031482;28;20572;-54
2021/09/10 15:22:36;;;;;;;1.95;1.50;;;16.00;52.30;;;;;;5031626;28;20214;-59
2021/09/10 15:25:07;;;;;;;1.85;1.30;;;16.00;52.30;;;;;;5031281;28;20271;-64
2021/09/10 15:27:38;;;;;;;1.92;1.40;;;16.00;52.30;;;;;;5031886;28;20562;-61
2021/09/10 15:30:12;;;;;;;2.08;1.13;;;16.00;52.30;;;;;;5031445;28;20247;-64
2021/09/10 15:32:43;;;;;;;1.73;1.25;;;16.00;52.30;;;;;;5031689;28;20270;-61
2021/09/10 15:35:14;;;;;;;1.80;1.38;;;16.00;52.30;;;;;;5032893;28;20316;-57
2021/09/10 16:32:19;;;;;;;2.45;1.50;;;15.50;52.10;;;;;;5038032;28;20199;-49
2021/09/10 17:35:28;;;;;;;1.98;1.45;;;15.10;52.10;;;;;;5013546;28;20231;-58
2021/09/10 17:37:59;;;;;;;2.13;1.42;;;15.00;52.00;;;;;;5013679;28;20214;-56
2021/09/10 17:40:30;;;;;;;1.67;1.35;;;15.00;52.10;;;;;;5015944;28;20613;-54
2021/09/10 17:43:01;;;;;;;2.80;1.38;;;15.00;52.20;;;;;;5033209;28;20192;-57
2021/09/10 17:45:32;;;;;;;3.17;1.50;;;15.00;52.20;;;;;;5033809;28;20196;-59
2021/09/10 17:48:03;;;;;;;3.08;1.45;;;15.00;52.20;;;;;;5033233;28;20196;-57
2021/09/10 17:50:35;;;;;;;2.10;1.45;;;15.00;52.20;;;;;;5033228;28;20672;-59
2021/09/10 17:53:06;;;;;;;2.20;1.60;;;15.00;52.20;;;;;;5032792;28;20551;-57
2021/09/10 17:55:37;;;;;;;1.88;1.40;;;15.00;52.20;;;;;;5032764;28;20215;-53
2021/09/10 17:58:08;;;;;;;2.47;1.38;;;14.90;52.10;;;;;;5032266;28;20553;-59
2021/09/10 18:00:40;;;;;;;2.53;1.60;;;14.90;52.10;;;;;;5032383;28;20564;-54
2021/09/10 18:03:11;;;;;;;2.22;1.45;;;14.90;52.10;;;;;;5032477;28;20235;-54
2021/09/10 18:05:44;;;;;;;2.65;1.48;;;14.90;52.10;;;;;;5032674;28;20188;-53
2021/09/10 18:08:15;;;;;;;2.42;1.40;;;14.90;52.10;;;;;;5032930;28;20547;-55
2021/09/10 18:10:46;;;;;;;1.90;1.23;;;14.90;52.10;;;;;;5032784;28;20212;-59
2021/09/10 18:13:19;;;;;;;1.48;1.17;;;14.90;52.10;;;;;;5032360;28;20275;-61
2021/09/10 18:15:50;;;;;;;1.42;1.30;;;14.90;52.10;;;;;;5032279;28;20223;-58
2021/09/10 18:18:21;;;;;;;2.28;1.35;;;14.80;52.00;;;;;;5032291;28;20196;-58
2021/09/10 18:20:53;;;;;;;2.03;1.15;;;14.80;52.10;;;;;;5032388;28;20582;-58
2021/09/10 18:23:25;;;;;;;1.90;1.40;;;14.80;52.10;;;;;;5032818;28;20267;-62
2021/09/10 18:25:56;;;;;;;2.67;1.58;;;14.80;52.10;;;;;;5032233;28;20551;-58
2021/09/10 18:28:28;;;;;;;2.67;1.50;;;14.80;52.10;;;;;;5031752;28;20270;-61